Time;durP1;ratioP1;P1;durP2;ratioP2;P2;SDS_P1;SDS_P2;PMS_P1;PMS_P2;Temp;Humidity;BMP_temperature;BMP_pressure;BME280_temperature;BME280_humidity;BME280_pressure;Samples;Min_cycle;Max_cycle;Signal;HPM_P1;HPM_P2
2023/09/29 00:03:15;;;;;;;36.78;16.38;;;;;11.90;96701.00;;;;8256925;28;20233;-64
2023/09/29 00:07:18;;;;;;;40.75;16.92;;;;;12.00;96703.00;;;;8250283;28;20788;-64
2023/09/29 00:11:21;;;;;;;32.60;15.02;;;;;11.90;96714.00;;;;8249202;28;20286;-64
2023/09/29 00:15:25;;;;;;;35.47;15.60;;;;;11.80;96703.00;;;;8244809;28;20650;-64
2023/09/29 00:19:29;;;;;;;35.92;14.77;;;;;11.80;96713.00;;;;8275145;28;20214;-64
2023/09/29 00:23:33;;;;;;;29.00;14.25;;;;;11.70;96712.00;;;;8246617;28;20197;-64
2023/09/29 00:27:36;;;;;;;34.50;15.63;;;;;11.70;96709.00;;;;8251313;28;20212;-64
2023/09/29 00:31:39;;;;;;;164.60;15.40;;;;;11.70;96702.00;;;;8248906;28;20233;-64
2023/09/29 00:35:44;;;;;;;53.17;15.32;;;;;11.80;96694.00;;;;8246866;28;20581;-64
2023/09/29 00:39:47;;;;;;;39.83;17.35;;;;;11.70;96689.00;;;;8252337;28;20881;-64
2023/09/29 00:43:51;;;;;;;44.55;17.65;;;;;11.60;96695.00;;;;8252441;28;20296;-64
2023/09/29 00:47:55;;;;;;;40.90;17.30;;;;;11.60;96689.00;;;;8245683;28;20209;-63
2023/09/29 00:52:02;;;;;;;39.75;16.48;;;;;11.50;96692.00;;;;8252015;28;20278;-64
2023/09/29 00:56:06;;;;;;;35.38;17.20;;;;;11.40;96694.00;;;;8248845;28;20211;-64
2023/09/29 01:00:15;;;;;;;33.30;14.82;;;;;11.40;96700.00;;;;8252936;28;20296;-64
2023/09/29 01:04:18;;;;;;;38.28;16.85;;;;;11.50;96692.00;;;;8241281;28;20235;-63
2023/09/29 01:08:26;;;;;;;26.83;14.30;;;;;11.50;96683.00;;;;8244186;28;20947;-63
2023/09/29 01:12:29;;;;;;;42.13;16.15;;;;;11.40;96691.00;;;;8250234;28;20226;-63
2023/09/29 01:16:32;;;;;;;27.52;13.88;;;;;11.40;96691.00;;;;8251007;28;20231;-63
2023/09/29 01:20:37;;;;;;;28.50;13.40;;;;;11.30;96693.00;;;;8252290;28;20208;-63
2023/09/29 01:24:42;;;;;;;31.83;14.38;;;;;11.20;96675.00;;;;8245439;28;20235;-64
2023/09/29 01:28:47;;;;;;;40.95;15.27;;;;;11.10;96688.00;;;;8250280;28;20305;-64
2023/09/29 01:32:51;;;;;;;42.97;16.45;;;;;11.00;96678.00;;;;8244666;28;20496;-64
2023/09/29 01:36:59;;;;;;;38.55;16.17;;;;;10.90;96685.00;;;;8245524;28;20206;-63
2023/09/29 01:41:04;;;;;;;33.58;14.95;;;;;11.00;96684.00;;;;8255678;28;20278;-64
2023/09/29 01:45:10;;;;;;;29.65;13.98;;;;;11.00;96690.00;;;;8245993;28;20224;-64
2023/09/29 01:49:13;;;;;;;24.15;11.93;;;;;11.00;96692.00;;;;8251368;28;20568;-64
2023/09/29 01:53:16;;;;;;;172.50;18.30;;;;;10.90;96690.00;;;;8246936;28;20269;-63
2023/09/29 01:57:21;;;;;;;414.25;33.50;;;;;10.80;96681.00;;;;8246897;28;20216;-64
2023/09/29 02:01:24;;;;;;;35.05;15.07;;;;;10.80;96682.00;;;;8248551;28;20259;-64
2023/09/29 02:05:27;;;;;;;96.93;18.45;;;;;10.90;96691.00;;;;8247404;28;20233;-64
2023/09/29 02:09:30;;;;;;;41.25;17.20;;;;;10.80;96689.00;;;;8248798;28;20830;-64
2023/09/29 02:13:35;;;;;;;45.95;18.50;;;;;10.80;96692.00;;;;8241699;28;20230;-63
2023/09/29 02:17:38;;;;;;;51.08;20.90;;;;;10.90;96690.00;;;;8255824;28;20212;-64
2023/09/29 02:21:41;;;;;;;45.88;19.45;;;;;10.90;96693.00;;;;8254054;28;20294;-64
2023/09/29 02:25:45;;;;;;;40.83;17.17;;;;;10.80;96689.00;;;;8247803;28;20286;-64
2023/09/29 02:29:49;;;;;;;41.22;15.98;;;;;10.80;96690.00;;;;8249678;28;20309;-64
2023/09/29 02:33:53;;;;;;;31.27;14.38;;;;;10.80;96695.00;;;;8243524;28;20739;-63
2023/09/29 02:37:56;;;;;;;45.85;17.52;;;;;10.80;96693.00;;;;8257412;28;20207;-63
2023/09/29 02:42:00;;;;;;;85.22;22.75;;;;;10.70;96690.00;;;;8253897;28;20290;-63
2023/09/29 02:46:04;;;;;;;47.83;18.15;;;;;10.60;96685.00;;;;8242154;28;20200;-64
2023/09/29 02:50:09;;;;;;;46.45;19.25;;;;;10.60;96676.00;;;;8251771;28;20215;-63
2023/09/29 02:54:12;;;;;;;85.55;23.73;;;;;10.60;96683.00;;;;8247143;28;20887;-63
2023/09/29 02:58:16;;;;;;;106.10;26.23;;;;;10.60;96677.00;;;;8250104;28;20285;-64
2023/09/29 03:02:22;;;;;;;73.87;23.53;;;;;10.70;96689.00;;;;8277425;22;20626;-64
2023/09/29 03:06:25;;;;;;;63.60;22.27;;;;;10.60;96687.00;;;;8257859;28;20212;-64
2023/09/29 03:10:29;;;;;;;50.90;20.02;;;;;10.60;96683.00;;;;8266078;28;20238;-64
2023/09/29 03:14:33;;;;;;;47.70;17.85;;;;;10.50;96689.00;;;;8270149;28;20346;-63
2023/09/29 03:18:37;;;;;;;47.35;18.08;;;;;10.50;96682.00;;;;8266882;28;20226;-64
2023/09/29 03:22:41;;;;;;;43.13;17.83;;;;;10.40;96681.00;;;;8260892;28;20657;-64
2023/09/29 03:26:51;;;;;;;40.15;16.00;;;;;10.40;96695.00;;;;8264791;28;20303;-64
2023/09/29 03:30:54;;;;;;;39.47;16.65;;;;;10.40;96687.00;;;;8260190;28;20234;-64
2023/09/29 03:34:59;;;;;;;49.22;18.60;;;;;10.40;96689.00;;;;8263390;28;20233;-64
2023/09/29 03:39:05;;;;;;;48.92;17.95;;;;;10.40;96700.00;;;;8265148;28;20198;-64
2023/09/29 03:43:08;;;;;;;50.22;18.73;;;;;10.50;96702.00;;;;8277723;28;20206;-64
2023/09/29 03:47:12;;;;;;;42.10;17.35;;;;;10.70;96698.00;;;;8271267;28;20305;-64
2023/09/29 03:51:23;;;;;;;72.43;21.80;;;;;10.90;96700.00;;;;8270258;28;20306;-64
2023/09/29 03:55:27;;;;;;;82.80;23.10;;;;;11.10;96702.00;;;;8270994;28;20315;-64
2023/09/29 03:59:30;;;;;;;327.48;33.22;;;;;11.30;96705.00;;;;8274539;28;20235;-64
2023/09/29 04:03:33;;;;;;;246.68;30.08;;;;;11.50;96713.00;;;;8269777;28;20229;-65
2023/09/29 04:07:39;;;;;;;256.92;30.85;;;;;11.70;96703.00;;;;8273524;28;20266;-64
2023/09/29 04:11:44;;;;;;;740.97;49.58;;;;;11.80;96709.00;;;;8271991;28;20290;-64
2023/09/29 04:15:47;;;;;;;475.42;37.22;;;;;11.80;96712.00;;;;8257538;28;20228;-64
2023/09/29 04:19:50;;;;;;;566.00;42.75;;;;;11.80;96706.00;;;;8272713;28;20280;-64
2023/09/29 04:23:55;;;;;;;551.95;39.17;;;;;11.90;96716.00;;;;8276440;28;20572;-64
2023/09/29 04:27:58;;;;;;;823.08;54.38;;;;;12.00;96713.00;;;;8281342;28;20200;-65
2023/09/29 04:32:01;;;;;;;355.20;34.22;;;;;12.10;96714.00;;;;8272918;28;20478;-65
2023/09/29 04:36:05;;;;;;;604.80;42.42;;;;;12.10;96709.00;;;;8284211;28;20910;-65
2023/09/29 04:40:11;;;;;;;607.17;42.38;;;;;12.10;96705.00;;;;8273845;28;20197;-65
2023/09/29 04:44:14;;;;;;;332.75;32.10;;;;;12.10;96707.00;;;;8275486;28;20200;-65
2023/09/29 04:48:17;;;;;;;253.95;30.98;;;;;12.10;96701.00;;;;8284220;28;20711;-66
2023/09/29 04:52:21;;;;;;;232.60;33.40;;;;;12.30;96697.00;;;;8283813;28;20208;-66
2023/09/29 04:56:25;;;;;;;544.05;49.15;;;;;12.40;96706.00;;;;8284274;28;20240;-66
2023/09/29 05:00:28;;;;;;;458.60;49.00;;;;;12.40;96699.00;;;;8284618;28;21738;-66
2023/09/29 05:04:32;;;;;;;413.17;51.03;;;;;12.50;96700.00;;;;8275536;28;20292;-66
2023/09/29 05:08:36;;;;;;;792.40;63.22;;;;;12.60;96703.00;;;;8281731;28;20198;-66
2023/09/29 05:12:41;;;;;;;971.38;69.88;;;;;12.50;96709.00;;;;8275750;28;20208;-66
2023/09/29 05:16:44;;;;;;;432.10;39.90;;;;;12.40;96716.00;;;;8276197;28;20262;-66
2023/09/29 05:20:48;;;;;;;160.82;26.35;;;;;12.30;96715.00;;;;8278205;28;20206;-66
2023/09/29 05:24:53;;;;;;;262.02;30.10;;;;;12.20;96724.00;;;;8290708;28;20205;-66
2023/09/29 05:28:59;;;;;;;164.43;22.58;;;;;12.10;96722.00;;;;8274913;28;20208;-65
2023/09/29 05:33:03;;;;;;;100.30;21.15;;;;;12.00;96736.00;;;;8279431;28;20287;-66
2023/09/29 05:37:06;;;;;;;277.55;32.17;;;;;12.10;96733.00;;;;8271903;28;20247;-66
2023/09/29 05:41:10;;;;;;;220.95;29.45;;;;;12.10;96736.00;;;;8273865;28;20244;-66
2023/09/29 05:45:14;;;;;;;421.77;35.65;;;;;12.20;96744.00;;;;8276074;28;20209;-66
2023/09/29 05:49:17;;;;;;;186.25;31.02;;;;;12.30;96745.00;;;;8276619;28;20209;-65
2023/09/29 05:53:20;;;;;;;302.75;35.50;;;;;12.40;96750.00;;;;8276943;28;20647;-65
2023/09/29 05:57:23;;;;;;;270.77;35.08;;;;;12.60;96747.00;;;;8274843;28;20332;-65
2023/09/29 06:01:28;;;;;;;323.08;37.70;;;;;12.80;96746.00;;;;8277596;28;20235;-65
2023/09/29 06:05:31;;;;;;;306.15;37.33;;;;;13.00;96739.00;;;;8274507;28;20650;-66
2023/09/29 06:09:34;;;;;;;292.70;33.20;;;;;13.10;96743.00;;;;8275864;28;20229;-65
2023/09/29 06:13:38;;;;;;;435.98;39.60;;;;;13.20;96753.00;;;;8271824;28;20221;-65
2023/09/29 06:17:42;;;;;;;426.50;34.80;;;;;13.20;96750.00;;;;8271381;28;20203;-66
2023/09/29 06:21:46;;;;;;;341.42;36.28;;;;;13.40;96751.00;;;;8273513;28;20643;-67
2023/09/29 06:25:58;;;;;;;712.08;48.22;;;;;13.50;96757.00;;;;8274430;28;20237;-66
2023/09/29 06:30:02;;;;;;;427.17;36.03;;;;;13.70;96761.00;;;;8273156;28;20237;-66
2023/09/29 06:34:09;;;;;;;530.85;41.97;;;;;13.80;96759.00;;;;8274480;28;20230;-67
2023/09/29 06:38:12;;;;;;;499.80;40.97;;;;;14.00;96770.00;;;;8277498;28;20290;-67
2023/09/29 06:42:15;;;;;;;619.63;47.25;;;;;14.20;96763.00;;;;8270661;28;20207;-67
2023/09/29 06:46:18;;;;;;;400.90;40.15;;;;;14.40;96761.00;;;;8274408;28;20932;-67
2023/09/29 06:50:23;;;;;;;346.50;39.60;;;;;14.50;96757.00;;;;8269683;28;20202;-65
2023/09/29 06:54:26;;;;;;;366.55;39.35;;;;;14.70;96768.00;;;;8271032;28;20783;-66
2023/09/29 06:58:29;;;;;;;436.80;37.47;;;;;15.10;96769.00;;;;8271603;28;20337;-65
2023/09/29 07:02:32;;;;;;;479.83;38.60;;;;;15.30;96778.00;;;;8270881;28;20226;-67
2023/09/29 07:06:37;;;;;;;373.10;37.92;;;;;15.40;96780.00;;;;8272716;28;20225;-66
2023/09/29 07:10:41;;;;;;;362.17;37.67;;;;;15.50;96782.00;;;;8273092;28;20230;-65
2023/09/29 07:14:44;;;;;;;357.50;36.72;;;;;15.60;96788.00;;;;8275029;28;20226;-65
2023/09/29 07:18:48;;;;;;;399.33;40.30;;;;;15.70;96806.00;;;;8272342;28;20201;-65
2023/09/29 07:22:54;;;;;;;108.40;28.23;;;;;15.90;96798.00;;;;8270388;28;20202;-65
2023/09/29 07:26:57;;;;;;;224.85;33.83;;;;;16.10;96793.00;;;;8270524;28;20696;-65
2023/09/29 07:31:00;;;;;;;355.25;36.53;;;;;16.50;96792.00;;;;8270424;28;20321;-65
2023/09/29 07:35:07;;;;;;;256.13;31.17;;;;;16.70;96802.00;;;;8272980;28;21014;-67
2023/09/29 07:39:13;;;;;;;316.30;33.72;;;;;16.80;96805.00;;;;8272840;28;20769;-66
2023/09/29 07:43:16;;;;;;;204.95;27.60;;;;;16.90;96801.00;;;;8275605;28;21648;-66
2023/09/29 07:47:20;;;;;;;425.30;38.90;;;;;17.10;96801.00;;;;8274253;28;20229;-66
2023/09/29 07:51:24;;;;;;;98.40;25.55;;;;;17.30;96802.00;;;;8272551;28;20310;-66
2023/09/29 07:55:29;;;;;;;392.27;37.35;;;;;17.50;96800.00;;;;8268640;28;20405;-66
2023/09/29 07:59:32;;;;;;;140.55;28.58;;;;;17.70;96806.00;;;;8272717;28;20293;-66
2023/09/29 08:03:35;;;;;;;56.03;23.75;;;;;18.00;96795.00;;;;8278532;28;20245;-66
2023/09/29 08:07:39;;;;;;;47.47;24.10;;;;;18.20;96805.00;;;;8273284;28;20256;-65
2023/09/29 08:11:43;;;;;;;45.97;23.27;;;;;18.20;96818.00;;;;8282991;28;20203;-65
2023/09/29 08:15:47;;;;;;;39.53;22.55;;;;;18.10;96832.00;;;;8274178;28;20730;-66
2023/09/29 08:19:50;;;;;;;36.63;21.67;;;;;18.10;96833.00;;;;8273230;28;20305;-65
2023/09/29 08:23:53;;;;;;;36.53;20.65;;;;;18.20;96836.00;;;;8283353;28;21069;-62
2023/09/29 08:28:02;;;;;;;35.00;19.80;;;;;18.30;96843.00;;;;8279655;28;20198;-62
2023/09/29 08:32:05;;;;;;;31.45;19.92;;;;;18.40;96842.00;;;;8276166;28;20203;-62
2023/09/29 08:36:08;;;;;;;28.45;18.58;;;;;18.50;96845.00;;;;8273580;28;20237;-61
2023/09/29 08:40:16;;;;;;;29.48;19.30;;;;;18.80;96852.00;;;;8278714;28;20210;-61
2023/09/29 08:44:26;;;;;;;29.15;19.08;;;;;19.00;96856.00;;;;8269736;28;20777;-62
2023/09/29 08:48:33;;;;;;;27.38;18.17;;;;;19.10;96852.00;;;;8273760;28;20221;-62
2023/09/29 08:52:37;;;;;;;30.05;17.38;;;;;19.40;96847.00;;;;8271361;28;20286;-63
2023/09/29 08:56:40;;;;;;;22.88;15.57;;;;;19.70;96845.00;;;;8275734;28;20254;-62
2023/09/29 09:00:45;;;;;;;21.25;14.63;;;;;20.20;96843.00;;;;8279158;28;20679;-62
2023/09/29 09:04:54;;;;;;;23.17;15.48;;;;;20.70;96838.00;;;;8277434;28;20272;-62
2023/09/29 09:08:57;;;;;;;19.95;13.77;;;;;21.10;96841.00;;;;8276708;28;20198;-62
2023/09/29 09:13:00;;;;;;;19.45;14.13;;;;;21.50;96838.00;;;;8272704;28;20199;-63
2023/09/29 09:17:06;;;;;;;19.02;14.02;;;;;21.70;96845.00;;;;8276007;28;20272;-63
2023/09/29 09:21:12;;;;;;;17.38;11.98;;;;;22.00;96844.00;;;;8272143;28;20566;-64
2023/09/29 09:25:15;;;;;;;16.92;12.68;;;;;22.30;96832.00;;;;8272472;28;20645;-62
2023/09/29 09:29:19;;;;;;;16.92;12.02;;;;;22.60;96827.00;;;;8271025;28;20216;-64
2023/09/29 09:33:25;;;;;;;16.45;11.65;;;;;22.80;96826.00;;;;8273060;28;20232;-63
2023/09/29 09:37:29;;;;;;;16.40;10.65;;;;;23.40;96819.00;;;;8273925;28;20254;-62
2023/09/29 09:41:34;;;;;;;15.75;10.93;;;;;24.10;96833.00;;;;8269471;28;20670;-64
2023/09/29 09:45:39;;;;;;;13.20;10.25;;;;;24.70;96822.00;;;;8267445;28;20294;-63
2023/09/29 09:49:48;;;;;;;11.07;8.93;;;;;25.20;96825.00;;;;8270296;28;20289;-65
2023/09/29 09:53:52;;;;;;;10.35;8.45;;;;;25.80;96825.00;;;;8267735;28;20206;-65
2023/09/29 09:57:59;;;;;;;13.40;8.82;;;;;26.10;96822.00;;;;8269320;28;20272;-64
2023/09/29 10:02:06;;;;;;;10.05;7.65;;;;;25.90;96813.00;;;;8271193;28;20619;-65
2023/09/29 10:06:11;;;;;;;10.52;7.00;;;;;25.90;96813.00;;;;8276558;28;20254;-64
2023/09/29 10:10:25;;;;;;;11.95;7.22;;;;;25.70;96813.00;;;;8272012;28;20814;-65
2023/09/29 10:14:28;;;;;;;10.57;7.07;;;;;25.70;96823.00;;;;8272084;28;20208;-65
2023/09/29 10:18:33;;;;;;;9.23;6.40;;;;;25.60;96811.00;;;;8273227;28;20328;-65
2023/09/29 10:22:39;;;;;;;9.13;5.55;;;;;25.60;96820.00;;;;8271022;28;20209;-65
2023/09/29 10:26:43;;;;;;;8.18;5.57;;;;;25.70;96810.00;;;;8273390;28;20230;-64
2023/09/29 10:30:47;;;;;;;8.88;5.82;;;;;26.10;96801.00;;;;8273849;28;20217;-65
2023/09/29 10:35:01;;;;;;;12.57;5.78;;;;;26.30;96794.00;;;;8273426;28;20248;-64
2023/09/29 10:39:05;;;;;;;9.90;5.65;;;;;26.10;96793.00;;;;8274380;28;20661;-65
2023/09/29 10:43:10;;;;;;;9.73;4.75;;;;;26.20;96793.00;;;;8268357;28;20202;-65
2023/09/29 10:47:14;;;;;;;10.32;4.78;;;;;26.40;96786.00;;;;8274804;28;20710;-71
2023/09/29 10:51:24;;;;;;;11.15;5.10;;;;;26.60;96793.00;;;;8265644;28;20268;-65
2023/09/29 10:55:30;;;;;;;6.65;4.30;;;;;26.60;96792.00;;;;8267518;28;20238;-63
2023/09/29 10:59:35;;;;;;;4.30;3.90;;;;;26.90;96785.00;;;;8272280;28;20937;-63
2023/09/29 11:03:38;;;;;;;6.97;4.00;;;;;27.20;96773.00;;;;8269980;28;20317;-63
2023/09/29 11:07:50;;;;;;;6.15;4.90;;;;;27.20;96766.00;;;;8273816;28;20935;-64
2023/09/29 11:11:55;;;;;;;4.50;3.70;;;;;27.30;96767.00;;;;8258818;28;20634;-63
2023/09/29 11:15:59;;;;;;;7.22;4.40;;;;;27.40;96769.00;;;;8271532;28;20308;-63
2023/09/29 11:20:07;;;;;;;6.05;3.97;;;;;27.70;96770.00;;;;8272413;28;20190;-66
2023/09/29 11:24:13;;;;;;;6.63;3.88;;;;;27.80;96762.00;;;;8274586;28;20711;-68
2023/09/29 11:28:18;;;;;;;4.30;3.75;;;;;27.80;96763.00;;;;8278996;28;20205;-68
2023/09/29 11:32:22;;;;;;;5.15;4.00;;;;;27.80;96753.00;;;;8273078;28;20234;-68
2023/09/29 11:36:27;;;;;;;9.32;4.32;;;;;27.90;96750.00;;;;8275848;28;20308;-68
2023/09/29 11:40:30;;;;;;;8.20;4.50;;;;;28.00;96747.00;;;;8278136;28;20272;-67
2023/09/29 11:44:35;;;;;;;6.55;4.00;;;;;28.30;96730.00;;;;8281566;28;20281;-67
2023/09/29 11:48:39;;;;;;;6.22;4.20;;;;;28.50;96740.00;;;;8277921;28;20281;-68
2023/09/29 11:52:42;;;;;;;5.18;3.92;;;;;28.70;96727.00;;;;8275102;28;20198;-68
2023/09/29 11:56:45;;;;;;;7.30;4.43;;;;;29.00;96732.00;;;;8280305;28;20233;-66
2023/09/29 12:00:50;;;;;;;7.47;3.60;;;;;29.40;96726.00;;;;8274828;28;20197;-67
2023/09/29 12:04:53;;;;;;;4.32;3.70;;;;;29.60;96729.00;;;;8289309;28;20237;-68
2023/09/29 12:08:57;;;;;;;5.13;4.38;;;;;29.80;96731.00;;;;8285613;28;20198;-67
2023/09/29 12:13:00;;;;;;;4.80;3.92;;;;;29.90;96728.00;;;;8285568;28;20237;-68
2023/09/29 12:17:04;;;;;;;4.70;3.85;;;;;29.90;96729.00;;;;8283307;28;20222;-68
2023/09/29 12:21:08;;;;;;;6.20;4.15;;;;;29.80;96742.00;;;;8285603;28;20216;-69
2023/09/29 12:25:13;;;;;;;7.63;3.92;;;;;29.80;96734.00;;;;8275046;28;20213;-69
2023/09/29 12:29:16;;;;;;;5.68;3.95;;;;;29.70;96726.00;;;;8275626;28;20199;-70
2023/09/29 12:33:21;;;;;;;6.72;3.72;;;;;29.70;96746.00;;;;8283698;28;20344;-68
2023/09/29 12:37:25;;;;;;;8.80;4.25;;;;;29.50;96739.00;;;;8276836;28;20234;-68
2023/09/29 12:41:28;;;;;;;6.15;4.45;;;;;29.60;96746.00;;;;8272986;28;20223;-68
2023/09/29 12:45:35;;;;;;;5.85;4.13;;;;;29.60;96751.00;;;;8273309;28;20198;-67
2023/09/29 12:49:39;;;;;;;4.90;3.67;;;;;29.70;96734.00;;;;8267082;28;20226;-68
2023/09/29 12:53:43;;;;;;;5.50;3.97;;;;;29.80;96727.00;;;;8271631;28;20640;-69
2023/09/29 12:57:46;;;;;;;7.93;3.92;;;;;29.60;96728.00;;;;8270468;28;21029;-67
2023/09/29 13:01:50;;;;;;;7.72;3.88;;;;;29.40;96722.00;;;;8276967;28;20249;-68
2023/09/29 13:06:00;;;;;;;7.82;4.30;;;;;29.20;96723.00;;;;8274783;28;20218;-68
2023/09/29 13:10:03;;;;;;;5.47;4.03;;;;;29.10;96721.00;;;;8270198;28;20636;-67
2023/09/29 13:14:07;;;;;;;6.25;4.10;;;;;29.30;96718.00;;;;8272490;28;20675;-69
2023/09/29 13:18:10;;;;;;;7.90;4.40;;;;;29.40;96709.00;;;;8273090;28;20226;-68
2023/09/29 13:22:14;;;;;;;6.18;4.00;;;;;29.30;96704.00;;;;8270047;28;20202;-68
2023/09/29 13:26:18;;;;;;;4.97;3.88;;;;;29.20;96707.00;;;;8277494;28;20293;-69
2023/09/29 13:30:21;;;;;;;9.35;4.35;;;;;29.40;96697.00;;;;8281253;28;20309;-70
2023/09/29 13:34:26;;;;;;;5.30;3.78;;;;;29.40;96707.00;;;;8268882;28;20607;-69
2023/09/29 13:38:30;;;;;;;10.32;4.90;;;;;29.30;96699.00;;;;8277871;28;20237;-70
2023/09/29 13:42:34;;;;;;;5.57;4.00;;;;;29.50;96696.00;;;;8264922;28;20194;-69
2023/09/29 13:46:37;;;;;;;4.20;3.80;;;;;29.80;96694.00;;;;8271944;28;20563;-72
2023/09/29 13:51:04;;;;;;;5.97;4.00;;;;;30.00;96685.00;;;;8255218;28;20649;-69
2023/09/29 13:55:11;;;;;;;8.18;4.13;;;;;30.00;96686.00;;;;8267527;28;20202;-70
2023/09/29 13:59:14;;;;;;;5.70;3.55;;;;;29.80;96690.00;;;;8276636;28;20264;-69
2023/09/29 14:03:17;;;;;;;6.90;3.88;;;;;29.30;96685.00;;;;8278671;28;20244;-70
2023/09/29 14:07:21;;;;;;;8.43;3.83;;;;;28.80;96679.00;;;;8266131;28;20292;-70
2023/09/29 14:11:25;;;;;;;5.32;4.03;;;;;28.50;96681.00;;;;8276115;28;20754;-70
2023/09/29 14:15:29;;;;;;;5.68;4.15;;;;;28.50;96670.00;;;;8271276;28;20281;-68
2023/09/29 14:19:32;;;;;;;5.32;3.70;;;;;28.40;96672.00;;;;8278570;28;20238;-69
2023/09/29 14:23:35;;;;;;;6.80;3.97;;;;;28.20;96674.00;;;;8281014;28;20206;-69
2023/09/29 14:27:40;;;;;;;7.90;4.25;;;;;28.10;96674.00;;;;8270957;28;20194;-69
2023/09/29 14:31:44;;;;;;;10.00;3.97;;;;;28.10;96664.00;;;;8278950;28;20294;-69
2023/09/29 14:35:47;;;;;;;6.22;3.78;;;;;28.10;96663.00;;;;8272283;28;20228;-68
2023/09/29 14:39:53;;;;;;;6.07;3.72;;;;;28.30;96657.00;;;;8275483;28;20221;-67
2023/09/29 14:43:58;;;;;;;5.00;3.80;;;;;28.50;96657.00;;;;8276010;28;20225;-68
2023/09/29 14:48:04;;;;;;;8.63;3.90;;;;;28.50;96650.00;;;;8270119;28;20294;-68
2023/09/29 14:52:07;;;;;;;4.13;3.30;;;;;28.50;96649.00;;;;8271868;28;20360;-68
2023/09/29 14:56:12;;;;;;;5.53;4.03;;;;;28.50;96639.00;;;;8266613;28;20731;-68
2023/09/29 15:00:18;;;;;;;7.25;3.60;;;;;28.20;96641.00;;;;8272679;28;20296;-68
2023/09/29 15:04:21;;;;;;;4.10;3.58;;;;;28.00;96642.00;;;;8273287;28;20234;-69
2023/09/29 15:08:24;;;;;;;11.18;4.13;;;;;27.90;96639.00;;;;8270718;28;20253;-69
2023/09/29 15:12:27;;;;;;;6.18;4.10;;;;;27.80;96635.00;;;;8275452;28;20285;-69
2023/09/29 15:16:33;;;;;;;6.35;3.92;;;;;27.70;96638.00;;;;8272814;28;20210;-69
2023/09/29 15:20:38;;;;;;;3.88;3.47;;;;;27.50;96643.00;;;;8276160;28;20230;-69
2023/09/29 15:24:42;;;;;;;6.05;3.80;;;;;27.50;96639.00;;;;8268866;28;20980;-69
2023/09/29 15:28:45;;;;;;;3.80;3.50;;;;;27.40;96641.00;;;;8273072;28;20287;-69
2023/09/29 15:32:52;;;;;;;6.63;3.55;;;;;27.30;96633.00;;;;8269493;28;20230;-69
2023/09/29 15:36:56;;;;;;;5.57;3.83;;;;;27.30;96638.00;;;;8269025;28;20284;-68
2023/09/29 15:40:59;;;;;;;5.82;3.50;;;;;27.20;96641.00;;;;8268345;28;20209;-69
2023/09/29 15:45:02;;;;;;;7.15;3.90;;;;;27.20;96638.00;;;;8272778;28;20336;-69
2023/09/29 15:49:06;;;;;;;4.85;3.78;;;;;27.20;96646.00;;;;8270546;28;20207;-69
2023/09/29 15:53:11;;;;;;;4.43;3.53;;;;;27.20;96644.00;;;;8272395;28;20289;-69
2023/09/29 15:57:14;;;;;;;6.32;3.83;;;;;27.20;96653.00;;;;8275125;28;20288;-67
2023/09/29 16:01:17;;;;;;;4.72;3.40;;;;;27.30;96654.00;;;;8272742;28;20233;-67
2023/09/29 16:05:22;;;;;;;6.38;3.75;;;;;27.30;96647.00;;;;8272074;28;20960;-67
2023/09/29 16:09:26;;;;;;;5.40;3.67;;;;;27.30;96654.00;;;;8278768;28;20198;-68
2023/09/29 16:13:32;;;;;;;4.10;3.50;;;;;27.10;96655.00;;;;8274074;28;20786;-67
2023/09/29 16:17:35;;;;;;;6.25;3.97;;;;;27.00;96657.00;;;;8273503;28;20309;-65
2023/09/29 16:21:42;;;;;;;5.82;3.50;;;;;26.80;96662.00;;;;8266826;28;20202;-66
2023/09/29 16:25:45;;;;;;;5.57;3.60;;;;;26.60;96668.00;;;;8282060;28;20679;-66
2023/09/29 16:29:49;;;;;;;9.13;3.90;;;;;26.30;96671.00;;;;8286146;28;20205;-66
2023/09/29 16:33:52;;;;;;;7.93;3.90;;;;;25.90;96668.00;;;;8281976;28;20198;-67
2023/09/29 16:37:56;;;;;;;7.18;3.90;;;;;25.60;96674.00;;;;8276868;28;20957;-68
2023/09/29 16:42:00;;;;;;;4.97;3.80;;;;;25.30;96666.00;;;;8272127;28;20660;-68
2023/09/29 16:46:11;;;;;;;7.05;3.83;;;;;24.90;96665.00;;;;8273343;28;20580;-68
2023/09/29 16:50:16;;;;;;;7.50;4.03;;;;;24.50;96672.00;;;;8279192;28;20202;-70
2023/09/29 16:54:21;;;;;;;10.32;3.70;;;;;24.20;96662.00;;;;8278100;28;20199;-69
2023/09/29 16:58:24;;;;;;;7.78;3.85;;;;;23.90;96661.00;;;;8268133;28;20871;-68
2023/09/29 17:02:27;;;;;;;6.85;3.70;;;;;23.60;96653.00;;;;8267992;28;20233;-66
2023/09/29 17:06:31;;;;;;;6.80;4.22;;;;;23.20;96660.00;;;;8269369;28;20217;-66
2023/09/29 17:10:38;;;;;;;8.50;3.67;;;;;22.90;96668.00;;;;8272328;28;20208;-67
2023/09/29 17:14:42;;;;;;;6.50;4.13;;;;;22.60;96668.00;;;;8271729;28;21015;-67
2023/09/29 17:18:45;;;;;;;12.98;4.00;;;;;22.30;96667.00;;;;8271430;28;20226;-67
2023/09/29 17:22:48;;;;;;;8.38;4.35;;;;;22.10;96667.00;;;;8277707;28;20237;-67
2023/09/29 17:26:53;;;;;;;8.45;4.45;;;;;21.90;96665.00;;;;8267949;28;20356;-67
2023/09/29 17:30:56;;;;;;;7.00;3.80;;;;;21.70;96666.00;;;;8271830;28;20210;-68
2023/09/29 17:35:00;;;;;;;7.30;4.43;;;;;21.60;96670.00;;;;8272907;28;20208;-67
2023/09/29 17:39:04;;;;;;;5.55;3.80;;;;;21.40;96680.00;;;;8270268;28;21002;-68
2023/09/29 17:43:08;;;;;;;14.82;4.35;;;;;21.50;96679.00;;;;8278643;28;20880;-68
2023/09/29 17:47:12;;;;;;;5.35;3.75;;;;;21.50;96669.00;;;;8268777;28;20548;-67
2023/09/29 17:51:15;;;;;;;5.45;4.25;;;;;21.50;96680.00;;;;8271399;28;20947;-68
2023/09/29 17:55:19;;;;;;;6.47;4.65;;;;;21.50;96673.00;;;;8272505;28;20201;-68
2023/09/29 17:59:23;;;;;;;17.17;4.85;;;;;21.50;96674.00;;;;8273001;28;20221;-68
2023/09/29 18:03:26;;;;;;;8.50;4.80;;;;;21.40;96674.00;;;;8270785;28;20769;-69
2023/09/29 18:07:31;;;;;;;7.65;3.85;;;;;21.40;96678.00;;;;8275983;28;20202;-68
2023/09/29 18:11:34;;;;;;;6.50;4.15;;;;;21.50;96681.00;;;;8277248;28;20670;-68
2023/09/29 18:15:41;;;;;;;7.90;4.65;;;;;21.60;96686.00;;;;8267662;28;20759;-68
2023/09/29 18:19:44;;;;;;;8.77;4.75;;;;;21.70;96694.00;;;;8281831;28;20239;-68
2023/09/29 18:23:48;;;;;;;9.95;5.25;;;;;21.50;96700.00;;;;8279581;28;20210;-76
2023/09/29 18:27:51;;;;;;;8.55;5.70;;;;;20.90;96701.00;;;;8280774;28;20213;-72
2023/09/29 18:31:56;;;;;;;11.15;5.35;;;;;20.50;96704.00;;;;8278227;28;20203;-72
2023/09/29 18:36:01;;;;;;;7.50;5.07;;;;;20.20;96706.00;;;;8275891;28;20202;-72
2023/09/29 18:40:05;;;;;;;9.75;5.63;;;;;20.00;96712.00;;;;8281117;28;20947;-71
2023/09/29 18:44:10;;;;;;;8.20;5.95;;;;;19.70;96732.00;;;;8278050;28;20289;-74
2023/09/29 18:48:14;;;;;;;11.90;5.50;;;;;19.50;96762.00;;;;8275632;28;20194;-73
2023/09/29 18:52:18;;;;;;;11.38;5.78;;;;;19.50;96771.00;;;;8269175;28;20284;-73
2023/09/29 18:56:21;;;;;;;12.95;6.32;;;;;19.40;96771.00;;;;8267424;28;20536;-73
2023/09/29 19:00:25;;;;;;;9.43;5.85;;;;;19.40;96765.00;;;;8275561;28;20222;-72
2023/09/29 19:04:31;;;;;;;11.23;5.90;;;;;19.50;96777.00;;;;8266183;28;20921;-74
2023/09/29 19:08:35;;;;;;;9.23;6.03;;;;;19.40;96790.00;;;;8276484;28;20284;-73
2023/09/29 19:12:38;;;;;;;8.52;6.00;;;;;19.40;96791.00;;;;8281212;28;20260;-73
2023/09/29 19:16:41;;;;;;;8.75;6.30;;;;;19.40;96798.00;;;;8280237;28;20289;-72
2023/09/29 19:20:46;;;;;;;8.85;5.90;;;;;19.40;96803.00;;;;8282446;28;20671;-71
2023/09/29 19:24:51;;;;;;;6.80;4.30;;;;;19.30;96809.00;;;;8279328;28;20286;-71
2023/09/29 19:28:57;;;;;;;9.02;4.30;;;;;19.40;96812.00;;;;8282714;28;20234;-71
2023/09/29 19:33:01;;;;;;;5.00;3.88;;;;;19.50;96822.00;;;;8280779;28;20222;-69
2023/09/29 19:37:05;;;;;;;6.88;3.80;;;;;19.60;96830.00;;;;8283725;28;20199;-69
2023/09/29 19:41:12;;;;;;;10.30;4.07;;;;;19.80;96818.00;;;;8281611;28;20225;-71
2023/09/29 19:45:15;;;;;;;6.43;4.05;;;;;19.90;96825.00;;;;8280977;28;21068;-71
2023/09/29 19:49:21;;;;;;;8.73;4.22;;;;;20.10;96821.00;;;;8275647;28;20206;-70
2023/09/29 19:53:27;;;;;;;8.77;5.00;;;;;20.20;96812.00;;;;8271192;28;20234;-70
2023/09/29 19:57:30;;;;;;;10.98;5.25;;;;;20.30;96812.00;;;;8269639;28;20985;-70
2023/09/29 20:01:33;;;;;;;9.40;5.07;;;;;20.40;96814.00;;;;8274859;28;20305;-70
2023/09/29 20:05:40;;;;;;;10.25;5.28;;;;;20.40;96808.00;;;;8281850;28;20709;-70